sensor_id;sensor_type;location;lat;lon;timestamp;P1;durP1;ratioP1;P2;durP2;ratioP2
70457;SDS011;57919;56.194;95.716;2023-08-01T00:01:10;15.63;;;8.90;;
70457;SDS011;57919;56.194;95.716;2023-08-01T00:11:12;15.57;;;8.53;;
70457;SDS011;57919;56.194;95.716;2023-08-01T00:21:15;13.47;;;8.43;;
70457;SDS011;57919;56.194;95.716;2023-08-01T00:31:17;15.53;;;9.10;;
70457;SDS011;57919;56.194;95.716;2023-08-01T00:41:19;13.32;;;8.43;;
70457;SDS011;57919;56.194;95.716;2023-08-01T00:51:21;12.00;;;8.67;;
70457;SDS011;57919;56.194;95.716;2023-08-01T01:01:23;11.63;;;8.37;;
70457;SDS011;57919;56.194;95.716;2023-08-01T01:11:25;12.70;;;9.00;;
70457;SDS011;57919;56.194;95.716;2023-08-01T01:21:27;13.83;;;8.83;;
70457;SDS011;57919;56.194;95.716;2023-08-01T01:31:29;17.65;;;9.45;;
70457;SDS011;57919;56.194;95.716;2023-08-01T01:41:33;14.83;;;8.93;;
70457;SDS011;57919;56.194;95.716;2023-08-01T01:51:34;22.60;;;10.87;;
70457;SDS011;57919;56.194;95.716;2023-08-01T02:01:37;17.53;;;11.17;;
70457;SDS011;57919;56.194;95.716;2023-08-01T02:11:39;24.43;;;11.13;;
70457;SDS011;57919;56.194;95.716;2023-08-01T02:21:43;37.80;;;14.00;;
70457;SDS011;57919;56.194;95.716;2023-08-01T02:31:45;20.90;;;12.00;;
70457;SDS011;57919;56.194;95.716;2023-08-01T02:41:47;16.73;;;10.27;;
70457;SDS011;57919;56.194;95.716;2023-08-01T02:51:49;14.70;;;7.40;;
70457;SDS011;57919;56.194;95.716;2023-08-01T03:01:51;15.33;;;7.77;;
70457;SDS011;57919;56.194;95.716;2023-08-01T03:11:53;13.05;;;7.78;;
70457;SDS011;57919;56.194;95.716;2023-08-01T03:21:56;12.40;;;6.70;;
70457;SDS011;57919;56.194;95.716;2023-08-01T03:31:59;9.97;;;6.83;;
70457;SDS011;57919;56.194;95.716;2023-08-01T03:42:01;14.53;;;6.73;;
70457;SDS011;57919;56.194;95.716;2023-08-01T03:52:03;10.47;;;4.90;;
70457;SDS011;57919;56.194;95.716;2023-08-01T04:02:06;9.75;;;5.57;;
70457;SDS011;57919;56.194;95.716;2023-08-01T06:05:40;7.20;;;4.30;;
70457;SDS011;57919;56.194;95.716;2023-08-01T06:15:43;7.65;;;4.20;;
70457;SDS011;57919;56.194;95.716;2023-08-01T06:25:45;12.37;;;4.93;;
70457;SDS011;57919;56.194;95.716;2023-08-01T06:35:47;6.83;;;4.07;;
70457;SDS011;57919;56.194;95.716;2023-08-01T06:45:50;8.07;;;4.30;;
70457;SDS011;57919;56.194;95.716;2023-08-01T06:55:52;10.37;;;4.80;;
70457;SDS011;57919;56.194;95.716;2023-08-01T07:05:54;9.68;;;5.35;;
70457;SDS011;57919;56.194;95.716;2023-08-01T07:15:56;13.20;;;5.00;;
70457;SDS011;57919;56.194;95.716;2023-08-01T07:25:57;10.20;;;5.50;;
70457;SDS011;57919;56.194;95.716;2023-08-01T07:36:00;10.30;;;5.37;;
70457;SDS011;57919;56.194;95.716;2023-08-01T07:46:03;16.17;;;5.97;;
70457;SDS011;57919;56.194;95.716;2023-08-01T07:56:05;8.80;;;4.70;;
70457;SDS011;57919;56.194;95.716;2023-08-01T08:06:09;12.53;;;5.87;;
70457;SDS011;57919;56.194;95.716;2023-08-01T08:16:12;17.03;;;5.50;;
70457;SDS011;57919;56.194;95.716;2023-08-01T08:26:13;9.33;;;5.73;;
70457;SDS011;57919;56.194;95.716;2023-08-01T08:36:16;11.27;;;6.00;;
70457;SDS011;57919;56.194;95.716;2023-08-01T08:46:18;10.18;;;6.38;;
70457;SDS011;57919;56.194;95.716;2023-08-01T08:56:23;12.47;;;5.50;;
70457;SDS011;57919;56.194;95.716;2023-08-01T09:06:34;8.73;;;6.00;;
70457;SDS011;57919;56.194;95.716;2023-08-01T09:16:42;31.37;;;20.47;;
70457;SDS011;57919;56.194;95.716;2023-08-01T09:26:45;10.47;;;6.97;;
70457;SDS011;57919;56.194;95.716;2023-08-01T09:36:48;8.93;;;6.05;;
70457;SDS011;57919;56.194;95.716;2023-08-01T09:46:59;10.23;;;5.67;;
70457;SDS011;57919;56.194;95.716;2023-08-01T09:57:02;18.57;;;6.23;;
70457;SDS011;57919;56.194;95.716;2023-08-01T10:07:11;10.80;;;6.30;;
70457;SDS011;57919;56.194;95.716;2023-08-01T10:17:15;17.80;;;5.80;;
70457;SDS011;57919;56.194;95.716;2023-08-01T10:27:21;10.43;;;6.00;;
70457;SDS011;57919;56.194;95.716;2023-08-01T10:37:23;12.13;;;5.30;;
70457;SDS011;57919;56.194;95.716;2023-08-01T10:47:25;10.50;;;4.60;;
70457;SDS011;57919;56.194;95.716;2023-08-01T10:57:29;13.23;;;6.60;;
70457;SDS011;57919;56.194;95.716;2023-08-01T11:07:33;8.53;;;5.40;;
70457;SDS011;57919;56.194;95.716;2023-08-01T11:17:36;11.35;;;5.90;;
70457;SDS011;57919;56.194;95.716;2023-08-01T11:27:39;13.27;;;5.57;;
70457;SDS011;57919;56.194;95.716;2023-08-01T11:37:41;14.33;;;6.30;;
70457;SDS011;57919;56.194;95.716;2023-08-01T11:47:47;12.07;;;5.93;;
70457;SDS011;57919;56.194;95.716;2023-08-01T11:57:53;16.27;;;7.40;;
70457;SDS011;57919;56.194;95.716;2023-08-01T12:07:56;12.57;;;6.68;;
70457;SDS011;57919;56.194;95.716;2023-08-01T12:17:58;11.70;;;5.60;;
70457;SDS011;57919;56.194;95.716;2023-08-01T12:27:59;13.60;;;6.20;;
70457;SDS011;57919;56.194;95.716;2023-08-01T12:38:01;19.27;;;7.20;;
70457;SDS011;57919;56.194;95.716;2023-08-01T12:48:03;26.23;;;10.37;;
70457;SDS011;57919;56.194;95.716;2023-08-01T12:58:06;21.30;;;9.48;;
70457;SDS011;57919;56.194;95.716;2023-08-01T13:08:08;20.83;;;10.03;;
70457;SDS011;57919;56.194;95.716;2023-08-01T13:18:10;19.17;;;9.30;;
70457;SDS011;57919;56.194;95.716;2023-08-01T13:28:12;25.93;;;14.60;;
70457;SDS011;57919;56.194;95.716;2023-08-01T13:38:14;20.47;;;12.67;;
70457;SDS011;57919;56.194;95.716;2023-08-01T13:48:18;31.75;;;11.90;;
70457;SDS011;57919;56.194;95.716;2023-08-01T13:58:20;22.87;;;10.77;;
70457;SDS011;57919;56.194;95.716;2023-08-01T14:08:23;30.33;;;11.00;;
70457;SDS011;57919;56.194;95.716;2023-08-01T14:18:25;50.63;;;19.47;;
70457;SDS011;57919;56.194;95.716;2023-08-01T14:28:27;62.17;;;26.10;;
70457;SDS011;57919;56.194;95.716;2023-08-01T14:38:29;56.97;;;26.27;;
70457;SDS011;57919;56.194;95.716;2023-08-01T14:48:31;58.43;;;31.73;;
70457;SDS011;57919;56.194;95.716;2023-08-01T14:58:33;86.37;;;31.10;;
70457;SDS011;57919;56.194;95.716;2023-08-01T15:08:40;71.47;;;27.47;;
70457;SDS011;57919;56.194;95.716;2023-08-01T15:18:43;73.50;;;27.07;;
70457;SDS011;57919;56.194;95.716;2023-08-01T15:28:44;60.78;;;24.42;;
70457;SDS011;57919;56.194;95.716;2023-08-01T15:38:46;48.70;;;23.87;;
70457;SDS011;57919;56.194;95.716;2023-08-01T15:48:48;73.17;;;26.73;;
70457;SDS011;57919;56.194;95.716;2023-08-01T15:58:52;75.37;;;32.33;;
70457;SDS011;57919;56.194;95.716;2023-08-01T16:08:54;63.40;;;30.80;;
70457;SDS011;57919;56.194;95.716;2023-08-01T16:18:56;67.47;;;27.95;;
70457;SDS011;57919;56.194;95.716;2023-08-01T16:28:58;68.87;;;24.50;;
70457;SDS011;57919;56.194;95.716;2023-08-01T16:39:00;52.97;;;21.33;;
70457;SDS011;57919;56.194;95.716;2023-08-01T16:49:02;48.13;;;22.33;;
70457;SDS011;57919;56.194;95.716;2023-08-01T16:59:04;48.83;;;21.07;;
70457;SDS011;57919;56.194;95.716;2023-08-01T17:09:06;47.05;;;23.88;;
70457;SDS011;57919;56.194;95.716;2023-08-01T17:19:08;46.97;;;23.90;;
70457;SDS011;57919;56.194;95.716;2023-08-01T17:29:10;48.07;;;22.30;;
70457;SDS011;57919;56.194;95.716;2023-08-01T17:39:14;38.53;;;20.23;;
70457;SDS011;57919;56.194;95.716;2023-08-01T17:49:16;37.63;;;17.50;;
70457;SDS011;57919;56.194;95.716;2023-08-01T17:59:19;26.35;;;16.08;;
70457;SDS011;57919;56.194;95.716;2023-08-01T18:09:21;29.87;;;15.30;;
70457;SDS011;57919;56.194;95.716;2023-08-01T18:19:23;24.37;;;15.53;;
70457;SDS011;57919;56.194;95.716;2023-08-01T18:29:24;22.20;;;14.00;;
70457;SDS011;57919;56.194;95.716;2023-08-01T18:39:27;25.30;;;14.23;;
70457;SDS011;57919;56.194;95.716;2023-08-01T18:49:29;24.10;;;12.63;;
70457;SDS011;57919;56.194;95.716;2023-08-01T18:59:31;22.83;;;12.70;;
70457;SDS011;57919;56.194;95.716;2023-08-01T19:09:33;23.37;;;13.30;;
70457;SDS011;57919;56.194;95.716;2023-08-01T19:19:35;20.37;;;13.20;;
70457;SDS011;57919;56.194;95.716;2023-08-01T19:29:37;23.60;;;12.30;;
70457;SDS011;57919;56.194;95.716;2023-08-01T19:39:39;22.05;;;12.77;;
70457;SDS011;57919;56.194;95.716;2023-08-01T19:49:41;23.17;;;12.37;;
70457;SDS011;57919;56.194;95.716;2023-08-01T19:59:43;25.47;;;12.60;;
70457;SDS011;57919;56.194;95.716;2023-08-01T20:09:45;21.73;;;12.43;;
70457;SDS011;57919;56.194;95.716;2023-08-01T20:19:47;20.90;;;11.80;;
70457;SDS011;57919;56.194;95.716;2023-08-01T20:29:50;27.27;;;12.70;;
70457;SDS011;57919;56.194;95.716;2023-08-01T20:39:52;26.17;;;12.90;;
70457;SDS011;57919;56.194;95.716;2023-08-01T20:49:54;33.40;;;13.20;;
70457;SDS011;57919;56.194;95.716;2023-08-01T20:59:56;34.53;;;13.33;;
70457;SDS011;57919;56.194;95.716;2023-08-01T21:09:58;26.10;;;12.87;;
70457;SDS011;57919;56.194;95.716;2023-08-01T21:20:00;24.42;;;13.13;;
70457;SDS011;57919;56.194;95.716;2023-08-01T21:30:03;37.90;;;15.87;;
70457;SDS011;57919;56.194;95.716;2023-08-01T21:40:05;26.47;;;11.13;;
70457;SDS011;57919;56.194;95.716;2023-08-01T21:50:08;25.43;;;10.23;;
70457;SDS011;57919;56.194;95.716;2023-08-01T22:00:10;28.40;;;10.63;;
70457;SDS011;57919;56.194;95.716;2023-08-01T22:10:13;24.88;;;11.65;;
70457;SDS011;57919;56.194;95.716;2023-08-01T22:20:17;19.13;;;10.30;;
70457;SDS011;57919;56.194;95.716;2023-08-01T22:30:18;22.53;;;8.90;;
70457;SDS011;57919;56.194;95.716;2023-08-01T22:40:20;18.80;;;9.17;;
70457;SDS011;57919;56.194;95.716;2023-08-01T22:50:22;29.50;;;12.50;;
70457;SDS011;57919;56.194;95.716;2023-08-01T23:00:25;26.27;;;12.23;;
70457;SDS011;57919;56.194;95.716;2023-08-01T23:10:29;28.03;;;11.83;;
70457;SDS011;57919;56.194;95.716;2023-08-01T23:20:32;28.73;;;13.47;;
70457;SDS011;57919;56.194;95.716;2023-08-01T23:30:36;28.60;;;15.20;;
70457;SDS011;57919;56.194;95.716;2023-08-01T23:40:38;24.43;;;13.10;;
70457;SDS011;57919;56.194;95.716;2023-08-01T23:50:41;28.83;;;16.02;;
